createdAt,value
2023-03-22T00:00:30.878Z,4.78
2023-03-22T00:03:00.019Z,3.70
2023-03-22T00:05:31.304Z,3.88
2023-03-22T00:08:00.377Z,4.13
2023-03-22T00:10:29.968Z,4.07
2023-03-22T00:12:59.421Z,4.85
2023-03-22T00:15:30.427Z,4.07
2023-03-22T00:17:59.869Z,4.30
2023-03-22T00:20:31.280Z,4.38
2023-03-22T00:23:00.314Z,4.15
2023-03-22T00:25:29.289Z,4.72
2023-03-22T00:27:58.266Z,3.58
2023-03-22T00:30:27.282Z,4.45
2023-03-22T00:32:58.153Z,3.47
2023-03-22T00:35:27.183Z,3.92
2023-03-22T00:37:56.318Z,4.18
2023-03-22T00:40:25.367Z,3.90
2023-03-22T00:42:54.450Z,4.38
2023-03-22T00:45:23.459Z,3.88
2023-03-22T00:47:52.376Z,3.97
2023-03-22T00:50:23.181Z,4.10
2023-03-22T00:52:52.115Z,4.03
2023-03-22T00:55:21.232Z,3.83
2023-03-22T00:57:50.174Z,5.13
2023-03-22T01:00:19.809Z,4.47
2023-03-22T01:02:48.753Z,4.10
2023-03-22T01:05:18.864Z,3.67
2023-03-22T01:07:52.925Z,3.70
2023-03-22T01:10:21.962Z,3.92
2023-03-22T01:12:52.434Z,3.97
2023-03-22T01:15:21.512Z,3.50
2023-03-22T01:17:50.521Z,4.22
2023-03-22T01:20:19.773Z,4.03
2023-03-22T01:22:50.398Z,3.33
2023-03-22T01:25:19.669Z,3.90
2023-03-22T01:27:48.693Z,4.00
2023-03-22T01:30:17.902Z,3.25
2023-03-22T01:32:46.912Z,3.55
2023-03-22T01:35:16.499Z,3.60
2023-03-22T01:37:45.496Z,3.33
2023-03-22T01:40:17.153Z,3.65
2023-03-22T01:42:46.162Z,3.00
2023-03-22T01:45:40.957Z,3.75
2023-03-22T01:48:22.815Z,3.70
2023-03-22T01:51:00.653Z,3.28
2023-03-22T01:53:30.943Z,4.10
2023-03-22T01:56:02.063Z,2.33
2023-03-22T01:58:32.199Z,2.28
2023-03-22T02:01:01.751Z,1.95
2023-03-22T02:03:39.137Z,1.85
2023-03-22T02:06:08.817Z,2.38
2023-03-22T02:08:37.810Z,1.80
2023-03-22T02:11:09.152Z,1.70
2023-03-22T02:13:52.805Z,2.08
2023-03-22T02:16:33.855Z,1.60
2023-03-22T02:19:31.391Z,1.70
2023-03-22T02:22:30.909Z,2.00
2023-03-22T02:25:21.637Z,1.95
2023-03-22T02:28:18.685Z,2.05
2023-03-22T02:31:12.064Z,2.70
2023-03-22T02:34:27.997Z,1.80
2023-03-22T02:37:19.117Z,1.90
2023-03-22T02:39:54.884Z,2.33
2023-03-22T02:42:44.615Z,1.90
2023-03-22T02:45:18.561Z,2.17
2023-03-22T02:47:56.080Z,2.10
2023-03-22T02:50:29.548Z,1.75
2023-03-22T02:53:06.111Z,2.33
2023-03-22T02:55:41.884Z,2.50
2023-03-22T02:58:15.407Z,2.00
2023-03-22T03:00:47.325Z,2.00
2023-03-22T03:03:20.019Z,2.20
2023-03-22T03:05:55.381Z,2.28
2023-03-22T03:08:26.639Z,2.40
2023-03-22T03:10:57.645Z,2.30
2023-03-22T03:13:26.622Z,2.17
2023-03-22T03:16:00.166Z,3.00
2023-03-22T03:18:40.240Z,2.70
2023-03-22T03:21:21.798Z,2.20
2023-03-22T03:23:59.422Z,2.63
2023-03-22T03:26:39.082Z,2.80
2023-03-22T03:29:16.413Z,2.45
2023-03-22T03:31:51.741Z,3.10
2023-03-22T03:34:26.142Z,2.50
2023-03-22T03:37:00.338Z,2.42
2023-03-22T03:39:34.442Z,2.38
2023-03-22T03:42:10.917Z,3.08
2023-03-22T03:44:40.816Z,2.83
2023-03-22T03:47:11.739Z,2.25
2023-03-22T03:49:41.015Z,2.65
2023-03-22T03:52:10.136Z,2.60
2023-03-22T03:54:39.157Z,2.80
2023-03-22T03:57:09.842Z,3.03
2023-03-22T03:59:39.602Z,3.17
2023-03-22T04:02:08.778Z,3.45
2023-03-22T04:04:37.996Z,3.80
2023-03-22T04:07:08.115Z,3.83
2023-03-22T04:09:38.497Z,3.13
2023-03-22T04:12:12.374Z,3.90
2023-03-22T04:14:42.578Z,5.40
2023-03-22T04:17:11.707Z,5.40
2023-03-22T04:19:40.756Z,5.63
2023-03-22T04:22:15.472Z,5.07
2023-03-22T04:24:45.038Z,4.60
2023-03-22T04:27:15.626Z,5.15
2023-03-22T04:29:49.149Z,4.72
2023-03-22T04:32:19.698Z,5.20
2023-03-22T04:34:48.764Z,5.00
2023-03-22T04:37:18.556Z,4.60
2023-03-22T04:39:47.548Z,4.13
2023-03-22T04:42:18.156Z,4.70
2023-03-22T04:44:47.369Z,4.03
2023-03-22T04:47:16.663Z,4.18
2023-03-22T04:49:45.727Z,3.40
2023-03-22T04:52:14.722Z,3.70
2023-03-22T04:54:43.689Z,3.78
2023-03-22T04:57:12.708Z,3.45
2023-03-22T04:59:43.555Z,4.13
2023-03-22T05:02:12.565Z,3.20
2023-03-22T05:04:41.841Z,2.97
2023-03-22T05:07:10.832Z,3.45
2023-03-22T05:09:39.942Z,4.35
2023-03-22T05:12:09.267Z,3.90
2023-03-22T05:14:38.412Z,4.10
2023-03-22T05:17:09.153Z,3.67
2023-03-22T05:19:38.389Z,3.70
2023-03-22T05:22:07.444Z,4.00
2023-03-22T05:24:37.019Z,4.70
2023-03-22T05:27:06.690Z,4.30
2023-03-22T05:29:37.724Z,4.82
2023-03-22T05:32:08.549Z,4.05
2023-03-22T05:34:38.105Z,4.13
2023-03-22T05:37:07.425Z,3.75
2023-03-22T05:39:36.590Z,3.97
2023-03-22T05:42:05.873Z,3.90
2023-03-22T05:44:34.926Z,3.58
2023-03-22T05:47:07.781Z,3.13
2023-03-22T05:49:38.628Z,2.72
2023-03-22T05:52:08.117Z,2.70
2023-03-22T05:54:37.154Z,3.03
2023-03-22T05:57:06.311Z,3.20
2023-03-22T05:59:35.583Z,3.08
2023-03-22T06:02:04.665Z,4.45
2023-03-22T06:04:33.734Z,3.33
2023-03-22T06:07:04.520Z,2.65
2023-03-22T06:09:33.761Z,2.55
2023-03-22T06:12:02.838Z,2.20
2023-03-22T06:14:32.275Z,2.30
2023-03-22T06:17:01.750Z,2.58
2023-03-22T06:19:30.857Z,2.20
2023-03-22T06:21:59.993Z,2.25
2023-03-22T06:24:30.776Z,2.22
2023-03-22T06:26:59.836Z,2.17
2023-03-22T06:29:29.177Z,2.30
2023-03-22T06:31:58.265Z,2.08
2023-03-22T06:34:27.357Z,1.85
2023-03-22T06:36:56.406Z,1.80
2023-03-22T06:39:25.514Z,2.13
2023-03-22T06:41:56.191Z,2.20
2023-03-22T06:44:25.176Z,1.73
2023-03-22T06:46:54.240Z,1.75
2023-03-22T06:49:23.877Z,1.63
2023-03-22T06:51:52.892Z,1.83
2023-03-22T06:54:22.014Z,1.80
2023-03-22T06:56:51.230Z,1.77
2023-03-22T06:59:22.000Z,1.80
2023-03-22T07:01:51.037Z,1.83
2023-03-22T07:04:20.906Z,2.05
2023-03-22T07:06:50.196Z,1.80
2023-03-22T07:09:19.389Z,1.95
2023-03-22T07:11:48.810Z,1.95
2023-03-22T07:14:22.274Z,2.08
2023-03-22T07:16:51.477Z,1.95
2023-03-22T07:19:20.658Z,2.75
2023-03-22T07:21:49.791Z,1.80
2023-03-22T07:24:18.882Z,2.40
2023-03-22T07:26:47.930Z,2.38
2023-03-22T07:29:17.193Z,2.30
2023-03-22T07:31:47.977Z,2.22
2023-03-22T07:34:17.391Z,4.00
2023-03-22T07:36:46.562Z,3.40
2023-03-22T07:39:15.733Z,2.42
2023-03-22T07:41:44.796Z,2.20
2023-03-22T07:44:18.020Z,2.40
2023-03-22T07:46:49.616Z,2.00
2023-03-22T07:49:18.778Z,2.03
2023-03-22T07:51:47.804Z,5.40
2023-03-22T07:54:30.750Z,3.30
2023-03-22T07:57:02.473Z,2.40
2023-03-22T07:59:32.128Z,2.33
2023-03-22T08:02:02.988Z,2.65
2023-03-22T08:04:32.860Z,2.40
2023-03-22T08:07:01.865Z,2.33
2023-03-22T08:09:31.089Z,3.03
2023-03-22T08:12:00.221Z,3.75
2023-03-22T08:14:36.222Z,3.45
2023-03-22T08:17:07.611Z,3.92
2023-03-22T08:19:37.170Z,3.85
2023-03-22T08:22:07.849Z,2.88
2023-03-22T08:24:36.945Z,2.50
2023-03-22T08:27:06.373Z,4.35
2023-03-22T08:29:35.630Z,2.47
2023-03-22T08:32:07.320Z,2.22
2023-03-22T08:34:40.154Z,2.40
2023-03-22T08:37:09.643Z,2.30
2023-03-22T08:39:38.876Z,2.30
2023-03-22T08:42:08.080Z,2.38
2023-03-22T08:44:37.730Z,2.63
2023-03-22T08:47:08.618Z,2.47
2023-03-22T08:49:37.829Z,2.05
2023-03-22T08:52:08.232Z,3.65
2023-03-22T08:54:37.592Z,2.80
2023-03-22T08:57:10.200Z,2.10
2023-03-22T08:59:39.194Z,2.30
2023-03-22T09:02:11.039Z,2.35
2023-03-22T09:04:40.172Z,2.25
2023-03-22T09:07:09.194Z,2.40
2023-03-22T09:09:38.353Z,2.67
2023-03-22T09:12:08.222Z,2.00
2023-03-22T09:14:37.313Z,2.25
2023-03-22T09:17:06.323Z,1.90
2023-03-22T09:19:37.059Z,1.58
2023-03-22T09:22:06.023Z,1.88
2023-03-22T09:24:34.998Z,1.23
2023-03-22T09:27:04.267Z,1.60
2023-03-22T09:29:33.232Z,1.50
2023-03-22T09:32:02.209Z,1.45
2023-03-22T09:34:31.451Z,0.95
2023-03-22T09:37:03.490Z,1.23
2023-03-22T09:39:32.634Z,1.50
2023-03-22T09:42:05.625Z,1.30
2023-03-22T09:44:40.341Z,1.40
2023-03-22T09:47:17.286Z,1.40
2023-03-22T09:49:53.653Z,1.63
2023-03-22T09:52:24.957Z,1.50
2023-03-22T09:54:54.258Z,1.30
2023-03-22T09:57:28.608Z,1.20
2023-03-22T10:00:12.198Z,1.60
2023-03-22T10:02:53.562Z,1.40
2023-03-22T10:05:32.985Z,1.80
2023-03-22T10:08:22.153Z,2.13
2023-03-22T10:10:53.380Z,1.52
2023-03-22T10:13:30.152Z,1.40
2023-03-22T10:16:01.839Z,1.38
2023-03-22T10:18:36.562Z,1.80
2023-03-22T10:21:08.085Z,1.60
2023-03-22T10:23:44.146Z,1.42
2023-03-22T10:26:22.776Z,1.58
2023-03-22T10:29:02.682Z,1.70
2023-03-22T10:31:33.168Z,1.48
2023-03-22T10:34:06.574Z,1.70
2023-03-22T10:36:39.952Z,1.73
2023-03-22T10:39:17.579Z,1.77
2023-03-22T10:41:48.040Z,2.03
2023-03-22T10:44:20.510Z,1.95
2023-03-22T10:46:52.977Z,1.73
2023-03-22T10:49:28.001Z,1.67
2023-03-22T10:52:02.207Z,1.75
2023-03-22T10:54:34.125Z,1.50
2023-03-22T10:57:03.303Z,1.60
2023-03-22T10:59:50.673Z,1.50
2023-03-22T11:02:22.305Z,1.40
2023-03-22T11:04:53.564Z,1.70
2023-03-22T11:07:35.021Z,1.75
2023-03-22T11:10:24.354Z,1.88
2023-03-22T11:12:56.966Z,1.90
2023-03-22T11:15:29.822Z,1.70
2023-03-22T11:18:08.336Z,1.90
2023-03-22T11:20:40.952Z,2.05
2023-03-22T11:23:18.611Z,2.17
2023-03-22T11:25:51.035Z,1.98
2023-03-22T11:28:22.744Z,1.90
2023-03-22T11:31:10.064Z,2.33
2023-03-22T11:33:39.697Z,1.92
2023-03-22T11:36:18.503Z,2.03
2023-03-22T11:38:48.783Z,1.90
2023-03-22T11:41:26.789Z,2.15
2023-03-22T11:43:59.437Z,1.98
2023-03-22T11:46:29.601Z,2.10
2023-03-22T11:49:01.887Z,2.35
2023-03-22T11:51:34.270Z,2.03
2023-03-22T11:54:09.262Z,1.90
2023-03-22T11:56:43.880Z,2.10
2023-03-22T11:59:17.540Z,2.30
2023-03-22T12:01:50.742Z,2.40
2023-03-22T12:04:25.634Z,2.30
2023-03-22T12:06:57.921Z,1.92
2023-03-22T12:09:36.504Z,2.22
2023-03-22T12:12:13.764Z,2.72
2023-03-22T12:14:49.507Z,2.58
2023-03-22T12:17:25.604Z,2.22
2023-03-22T12:20:07.111Z,2.20
2023-03-22T12:22:40.905Z,2.00
2023-03-22T12:25:15.926Z,2.10
2023-03-22T12:27:49.433Z,2.20
2023-03-22T12:30:21.957Z,2.40
2023-03-22T12:32:54.969Z,2.03
2023-03-22T12:35:27.211Z,2.33
2023-03-22T12:37:59.461Z,2.20
2023-03-22T12:40:32.851Z,2.40
2023-03-22T12:43:12.931Z,2.40
2023-03-22T12:45:47.773Z,2.42
2023-03-22T12:48:21.700Z,2.25
2023-03-22T12:50:54.413Z,2.80
2023-03-22T12:53:27.686Z,2.50
2023-03-22T12:55:59.154Z,2.65
2023-03-22T12:58:29.819Z,2.58
2023-03-22T13:01:07.910Z,2.40
2023-03-22T13:03:41.305Z,2.80
2023-03-22T13:06:32.050Z,3.03
2023-03-22T13:09:18.882Z,3.03
2023-03-22T13:11:53.175Z,2.60
2023-03-22T13:14:59.070Z,3.00
2023-03-22T13:17:44.405Z,2.90
2023-03-22T13:20:29.288Z,2.55
2023-03-22T13:23:03.990Z,3.28
2023-03-22T13:25:38.116Z,3.05
2023-03-22T13:28:24.696Z,3.17
2023-03-22T13:30:56.879Z,3.20
2023-03-22T13:33:29.740Z,3.03
2023-03-22T13:36:00.625Z,2.80
2023-03-22T13:38:31.429Z,2.80
2023-03-22T13:41:03.888Z,2.50
2023-03-22T13:43:38.340Z,2.13
2023-03-22T13:46:28.735Z,2.00
2023-03-22T13:49:27.411Z,2.00
2023-03-22T13:52:00.266Z,1.60
2023-03-22T13:54:37.515Z,1.55
2023-03-22T13:57:16.855Z,1.60
2023-03-22T14:00:11.185Z,1.55
2023-03-22T14:02:45.854Z,1.70
2023-03-22T14:05:19.265Z,1.70
2023-03-22T14:07:52.157Z,1.45
2023-03-22T14:10:23.870Z,1.55
2023-03-22T14:12:56.781Z,1.73
2023-03-22T14:15:30.407Z,1.38
2023-03-22T14:18:05.522Z,1.67
2023-03-22T14:20:38.496Z,1.40
